sensor_id;sensor_type;location;lat;lon;timestamp;P1;durP1;ratioP1;P2;durP2;ratioP2
40058;SDS011;25763;49.972;8.568;2022-10-17T00:00:37;9.43;;;8.82;;
40058;SDS011;25763;49.972;8.568;2022-10-17T00:03:02;9.57;;;8.88;;
40058;SDS011;25763;49.972;8.568;2022-10-17T00:05:28;9.00;;;8.40;;
40058;SDS011;25763;49.972;8.568;2022-10-17T00:07:53;8.82;;;8.23;;
40058;SDS011;25763;49.972;8.568;2022-10-17T00:10:19;8.95;;;8.35;;
40058;SDS011;25763;49.972;8.568;2022-10-17T00:12:45;9.43;;;8.82;;
40058;SDS011;25763;49.972;8.568;2022-10-17T00:15:13;9.70;;;9.10;;
40058;SDS011;25763;49.972;8.568;2022-10-17T00:17:40;8.25;;;7.75;;
40058;SDS011;25763;49.972;8.568;2022-10-17T00:20:06;7.95;;;7.45;;
40058;SDS011;25763;49.972;8.568;2022-10-17T00:22:32;7.82;;;7.32;;
40058;SDS011;25763;49.972;8.568;2022-10-17T00:24:57;8.30;;;7.80;;
40058;SDS011;25763;49.972;8.568;2022-10-17T00:27:22;9.70;;;9.00;;
40058;SDS011;25763;49.972;8.568;2022-10-17T00:29:48;8.80;;;8.20;;
40058;SDS011;25763;49.972;8.568;2022-10-17T00:32:14;9.38;;;8.65;;
40058;SDS011;25763;49.972;8.568;2022-10-17T00:34:40;8.90;;;8.30;;
40058;SDS011;25763;49.972;8.568;2022-10-17T00:37:05;8.15;;;7.65;;
40058;SDS011;25763;49.972;8.568;2022-10-17T00:39:30;8.90;;;8.30;;
40058;SDS011;25763;49.972;8.568;2022-10-17T00:41:56;9.50;;;8.85;;
40058;SDS011;25763;49.972;8.568;2022-10-17T00:47:01;7.70;;;7.20;;
40058;SDS011;25763;49.972;8.568;2022-10-17T00:49:29;9.93;;;9.32;;
40058;SDS011;25763;49.972;8.568;2022-10-17T00:51:59;9.52;;;8.93;;
40058;SDS011;25763;49.972;8.568;2022-10-17T00:54:30;9.68;;;9.07;;
40058;SDS011;25763;49.972;8.568;2022-10-17T00:56:58;8.65;;;8.10;;
40058;SDS011;25763;49.972;8.568;2022-10-17T00:59:24;8.98;;;8.38;;
40058;SDS011;25763;49.972;8.568;2022-10-17T01:01:52;8.15;;;7.65;;
40058;SDS011;25763;49.972;8.568;2022-10-17T01:04:24;9.73;;;9.13;;
40058;SDS011;25763;49.972;8.568;2022-10-17T01:06:50;9.38;;;8.77;;
40058;SDS011;25763;49.972;8.568;2022-10-17T01:09:15;9.68;;;9.07;;
40058;SDS011;25763;49.972;8.568;2022-10-17T01:14:52;9.23;;;8.63;;
40058;SDS011;25763;49.972;8.568;2022-10-17T01:22:32;8.82;;;8.23;;
40058;SDS011;25763;49.972;8.568;2022-10-17T01:25:52;8.82;;;8.23;;
40058;SDS011;25763;49.972;8.568;2022-10-17T01:28:31;8.63;;;8.02;;
40058;SDS011;25763;49.972;8.568;2022-10-17T01:31:08;7.90;;;7.40;;
40058;SDS011;25763;49.972;8.568;2022-10-17T01:37:00;8.90;;;8.30;;
40058;SDS011;25763;49.972;8.568;2022-10-17T01:42:10;9.30;;;8.60;;
40058;SDS011;25763;49.972;8.568;2022-10-17T01:47:26;8.50;;;7.90;;
40058;SDS011;25763;49.972;8.568;2022-10-17T01:49:55;8.38;;;7.85;;
40058;SDS011;25763;49.972;8.568;2022-10-17T01:52:26;8.90;;;8.30;;
40058;SDS011;25763;49.972;8.568;2022-10-17T01:54:57;8.30;;;7.70;;
40058;SDS011;25763;49.972;8.568;2022-10-17T01:57:33;8.73;;;8.13;;
40058;SDS011;25763;49.972;8.568;2022-10-17T02:00:03;9.43;;;8.82;;
40058;SDS011;25763;49.972;8.568;2022-10-17T02:04:58;7.97;;;7.47;;
40058;SDS011;25763;49.972;8.568;2022-10-17T02:07:27;8.70;;;8.10;;
40058;SDS011;25763;49.972;8.568;2022-10-17T02:09:53;9.30;;;8.60;;
40058;SDS011;25763;49.972;8.568;2022-10-17T02:12:27;9.70;;;9.10;;
40058;SDS011;25763;49.972;8.568;2022-10-17T02:17:53;8.65;;;8.10;;
40058;SDS011;25763;49.972;8.568;2022-10-17T02:20:39;9.18;;;8.57;;
40058;SDS011;25763;49.972;8.568;2022-10-17T02:23:29;9.10;;;8.50;;
40058;SDS011;25763;49.972;8.568;2022-10-17T02:28:35;8.30;;;7.80;;
40058;SDS011;25763;49.972;8.568;2022-10-17T02:31:30;8.85;;;8.25;;
40058;SDS011;25763;49.972;8.568;2022-10-17T02:34:10;9.10;;;8.40;;
40058;SDS011;25763;49.972;8.568;2022-10-17T02:36:42;9.40;;;8.80;;
40058;SDS011;25763;49.972;8.568;2022-10-17T02:39:11;9.43;;;8.82;;
40058;SDS011;25763;49.972;8.568;2022-10-17T02:41:38;9.23;;;8.63;;
40058;SDS011;25763;49.972;8.568;2022-10-17T02:44:05;9.40;;;8.80;;
40058;SDS011;25763;49.972;8.568;2022-10-17T02:46:32;9.73;;;9.13;;
40058;SDS011;25763;49.972;8.568;2022-10-17T02:49:00;9.80;;;9.20;;
40058;SDS011;25763;49.972;8.568;2022-10-17T02:51:33;9.95;;;9.25;;
40058;SDS011;25763;49.972;8.568;2022-10-17T02:54:05;10.50;;;9.80;;
40058;SDS011;25763;49.972;8.568;2022-10-17T02:56:38;10.90;;;10.15;;
40058;SDS011;25763;49.972;8.568;2022-10-17T02:59:08;10.52;;;9.73;;
40058;SDS011;25763;49.972;8.568;2022-10-17T03:01:38;9.97;;;9.37;;
40058;SDS011;25763;49.972;8.568;2022-10-17T03:04:11;13.23;;;9.45;;
40058;SDS011;25763;49.972;8.568;2022-10-17T03:06:37;10.20;;;9.18;;
40058;SDS011;25763;49.972;8.568;2022-10-17T03:09:05;9.88;;;9.27;;
40058;SDS011;25763;49.972;8.568;2022-10-17T03:11:31;9.63;;;9.02;;
40058;SDS011;25763;49.972;8.568;2022-10-17T03:13:56;9.45;;;8.85;;
40058;SDS011;25763;49.972;8.568;2022-10-17T03:16:22;9.35;;;8.75;;
40058;SDS011;25763;49.972;8.568;2022-10-17T03:18:47;9.43;;;8.82;;
40058;SDS011;25763;49.972;8.568;2022-10-17T03:21:12;10.95;;;10.25;;
40058;SDS011;25763;49.972;8.568;2022-10-17T03:23:38;11.05;;;10.35;;
40058;SDS011;25763;49.972;8.568;2022-10-17T03:26:04;10.80;;;10.10;;
40058;SDS011;25763;49.972;8.568;2022-10-17T03:28:30;10.57;;;9.88;;
40058;SDS011;25763;49.972;8.568;2022-10-17T03:30:55;10.25;;;9.63;;
40058;SDS011;25763;49.972;8.568;2022-10-17T03:33:20;9.70;;;9.10;;
40058;SDS011;25763;49.972;8.568;2022-10-17T03:35:46;9.60;;;9.00;;
40058;SDS011;25763;49.972;8.568;2022-10-17T03:38:11;9.43;;;8.82;;
40058;SDS011;25763;49.972;8.568;2022-10-17T03:40:36;9.45;;;8.85;;
40058;SDS011;25763;49.972;8.568;2022-10-17T03:43:02;9.27;;;8.68;;
40058;SDS011;25763;49.972;8.568;2022-10-17T03:45:27;10.30;;;9.60;;
40058;SDS011;25763;49.972;8.568;2022-10-17T03:47:52;9.52;;;8.93;;
40058;SDS011;25763;49.972;8.568;2022-10-17T03:50:18;9.95;;;9.35;;
40058;SDS011;25763;49.972;8.568;2022-10-17T03:52:46;9.40;;;8.80;;
40058;SDS011;25763;49.972;8.568;2022-10-17T03:55:13;10.65;;;9.95;;
40058;SDS011;25763;49.972;8.568;2022-10-17T03:57:38;10.23;;;9.55;;
40058;SDS011;25763;49.972;8.568;2022-10-17T04:00:04;10.52;;;9.68;;
40058;SDS011;25763;49.972;8.568;2022-10-17T04:02:30;10.18;;;9.55;;
40058;SDS011;25763;49.972;8.568;2022-10-17T04:04:55;10.93;;;10.23;;
40058;SDS011;25763;49.972;8.568;2022-10-17T04:07:20;10.20;;;9.50;;
40058;SDS011;25763;49.972;8.568;2022-10-17T04:09:46;10.30;;;9.63;;
40058;SDS011;25763;49.972;8.568;2022-10-17T04:12:11;9.73;;;9.13;;
40058;SDS011;25763;49.972;8.568;2022-10-17T04:14:36;9.82;;;9.23;;
40058;SDS011;25763;49.972;8.568;2022-10-17T04:17:02;9.85;;;9.25;;
40058;SDS011;25763;49.972;8.568;2022-10-17T04:19:28;9.32;;;8.73;;
40058;SDS011;25763;49.972;8.568;2022-10-17T04:21:53;9.02;;;8.43;;
40058;SDS011;25763;49.972;8.568;2022-10-17T04:24:19;9.98;;;9.18;;
40058;SDS011;25763;49.972;8.568;2022-10-17T04:26:44;9.15;;;8.55;;
40058;SDS011;25763;49.972;8.568;2022-10-17T04:29:12;8.85;;;8.25;;
40058;SDS011;25763;49.972;8.568;2022-10-17T04:31:39;8.77;;;8.18;;
40058;SDS011;25763;49.972;8.568;2022-10-17T04:34:04;8.30;;;7.80;;
40058;SDS011;25763;49.972;8.568;2022-10-17T04:36:29;9.57;;;8.98;;
40058;SDS011;25763;49.972;8.568;2022-10-17T04:38:55;10.07;;;9.48;;
40058;SDS011;25763;49.972;8.568;2022-10-17T04:41:20;9.77;;;9.07;;
40058;SDS011;25763;49.972;8.568;2022-10-17T04:43:46;9.43;;;8.82;;
40058;SDS011;25763;49.972;8.568;2022-10-17T04:46:12;8.75;;;8.15;;
40058;SDS011;25763;49.972;8.568;2022-10-17T04:48:38;10.10;;;9.50;;
40058;SDS011;25763;49.972;8.568;2022-10-17T04:51:05;9.05;;;8.45;;
40058;SDS011;25763;49.972;8.568;2022-10-17T04:53:42;8.93;;;8.32;;
40058;SDS011;25763;49.972;8.568;2022-10-17T04:58:35;9.27;;;8.68;;
40058;SDS011;25763;49.972;8.568;2022-10-17T05:01:05;8.30;;;7.80;;
40058;SDS011;25763;49.972;8.568;2022-10-17T05:03:31;8.82;;;8.23;;
40058;SDS011;25763;49.972;8.568;2022-10-17T05:05:56;9.25;;;8.65;;
40058;SDS011;25763;49.972;8.568;2022-10-17T05:08:21;10.35;;;9.65;;
40058;SDS011;25763;49.972;8.568;2022-10-17T05:10:47;8.82;;;8.23;;
40058;SDS011;25763;49.972;8.568;2022-10-17T05:13:12;9.13;;;8.52;;
40058;SDS011;25763;49.972;8.568;2022-10-17T05:15:38;9.77;;;9.18;;
40058;SDS011;25763;49.972;8.568;2022-10-17T05:18:04;9.68;;;9.05;;
40058;SDS011;25763;49.972;8.568;2022-10-17T05:20:30;8.73;;;8.13;;
40058;SDS011;25763;49.972;8.568;2022-10-17T05:23:00;9.95;;;9.25;;
40058;SDS011;25763;49.972;8.568;2022-10-17T05:25:26;9.27;;;8.68;;
40058;SDS011;25763;49.972;8.568;2022-10-17T05:27:52;9.65;;;9.00;;
40058;SDS011;25763;49.972;8.568;2022-10-17T05:30:18;9.25;;;8.65;;
40058;SDS011;25763;49.972;8.568;2022-10-17T05:32:43;9.00;;;8.40;;
40058;SDS011;25763;49.972;8.568;2022-10-17T05:35:08;9.07;;;8.48;;
40058;SDS011;25763;49.972;8.568;2022-10-17T05:37:34;9.77;;;9.18;;
40058;SDS011;25763;49.972;8.568;2022-10-17T05:39:59;9.48;;;8.88;;
40058;SDS011;25763;49.972;8.568;2022-10-17T05:42:24;9.43;;;8.82;;
40058;SDS011;25763;49.972;8.568;2022-10-17T05:44:50;9.20;;;8.60;;
40058;SDS011;25763;49.972;8.568;2022-10-17T05:47:15;9.57;;;8.98;;
40058;SDS011;25763;49.972;8.568;2022-10-17T05:49:41;9.20;;;8.60;;
40058;SDS011;25763;49.972;8.568;2022-10-17T05:52:06;9.20;;;8.60;;
40058;SDS011;25763;49.972;8.568;2022-10-17T05:54:32;9.48;;;8.88;;
40058;SDS011;25763;49.972;8.568;2022-10-17T05:56:57;9.73;;;8.88;;
40058;SDS011;25763;49.972;8.568;2022-10-17T05:59:23;9.85;;;9.00;;
40058;SDS011;25763;49.972;8.568;2022-10-17T06:01:49;8.95;;;8.35;;
40058;SDS011;25763;49.972;8.568;2022-10-17T06:04:15;9.52;;;8.93;;
40058;SDS011;25763;49.972;8.568;2022-10-17T06:06:40;9.43;;;8.82;;
40058;SDS011;25763;49.972;8.568;2022-10-17T06:09:06;10.05;;;9.15;;
40058;SDS011;25763;49.972;8.568;2022-10-17T06:11:32;11.07;;;10.18;;
40058;SDS011;25763;49.972;8.568;2022-10-17T06:13:58;11.23;;;10.43;;
40058;SDS011;25763;49.972;8.568;2022-10-17T06:16:23;9.10;;;8.50;;
40058;SDS011;25763;49.972;8.568;2022-10-17T06:18:49;9.00;;;8.40;;
40058;SDS011;25763;49.972;8.568;2022-10-17T06:21:14;9.50;;;8.90;;
40058;SDS011;25763;49.972;8.568;2022-10-17T06:23:43;9.93;;;9.20;;
40058;SDS011;25763;49.972;8.568;2022-10-17T06:26:09;12.32;;;10.48;;
40058;SDS011;25763;49.972;8.568;2022-10-17T06:28:34;9.82;;;9.23;;
40058;SDS011;25763;49.972;8.568;2022-10-17T06:31:06;9.70;;;9.00;;
40058;SDS011;25763;49.972;8.568;2022-10-17T06:33:33;9.30;;;8.60;;
40058;SDS011;25763;49.972;8.568;2022-10-17T06:35:59;9.65;;;9.05;;
40058;SDS011;25763;49.972;8.568;2022-10-17T06:38:25;9.73;;;9.10;;
40058;SDS011;25763;49.972;8.568;2022-10-17T06:40:51;9.98;;;9.27;;
40058;SDS011;25763;49.972;8.568;2022-10-17T06:43:18;9.27;;;8.68;;
40058;SDS011;25763;49.972;8.568;2022-10-17T06:45:44;9.55;;;8.95;;
40058;SDS011;25763;49.972;8.568;2022-10-17T06:48:10;8.68;;;8.07;;
40058;SDS011;25763;49.972;8.568;2022-10-17T06:50:35;9.70;;;9.10;;
40058;SDS011;25763;49.972;8.568;2022-10-17T06:53:01;10.68;;;9.98;;
40058;SDS011;25763;49.972;8.568;2022-10-17T06:55:26;9.52;;;8.93;;
40058;SDS011;25763;49.972;8.568;2022-10-17T06:57:53;10.75;;;10.05;;
40058;SDS011;25763;49.972;8.568;2022-10-17T07:00:19;12.48;;;11.57;;
40058;SDS011;25763;49.972;8.568;2022-10-17T07:02:47;10.55;;;9.88;;
40058;SDS011;25763;49.972;8.568;2022-10-17T07:05:13;10.43;;;9.75;;
40058;SDS011;25763;49.972;8.568;2022-10-17T07:07:38;11.50;;;10.75;;
40058;SDS011;25763;49.972;8.568;2022-10-17T07:10:03;11.70;;;10.65;;
40058;SDS011;25763;49.972;8.568;2022-10-17T07:12:32;11.50;;;10.80;;
40058;SDS011;25763;49.972;8.568;2022-10-17T07:14:59;11.48;;;10.70;;
40058;SDS011;25763;49.972;8.568;2022-10-17T07:17:24;10.57;;;9.98;;
40058;SDS011;25763;49.972;8.568;2022-10-17T07:19:49;11.43;;;10.63;;
40058;SDS011;25763;49.972;8.568;2022-10-17T07:22:15;12.35;;;11.38;;
40058;SDS011;25763;49.972;8.568;2022-10-17T07:24:40;10.00;;;9.40;;
40058;SDS011;25763;49.972;8.568;2022-10-17T07:27:05;12.05;;;11.32;;
40058;SDS011;25763;49.972;8.568;2022-10-17T07:29:31;14.18;;;11.43;;
40058;SDS011;25763;49.972;8.568;2022-10-17T07:31:56;12.55;;;11.75;;
40058;SDS011;25763;49.972;8.568;2022-10-17T07:34:21;10.32;;;9.73;;
40058;SDS011;25763;49.972;8.568;2022-10-17T07:36:51;10.77;;;10.07;;
40058;SDS011;25763;49.972;8.568;2022-10-17T07:39:17;12.13;;;10.88;;
40058;SDS011;25763;49.972;8.568;2022-10-17T07:41:43;10.50;;;9.90;;
40058;SDS011;25763;49.972;8.568;2022-10-17T07:44:08;10.30;;;9.60;;
40058;SDS011;25763;49.972;8.568;2022-10-17T07:46:34;9.60;;;9.00;;
40058;SDS011;25763;49.972;8.568;2022-10-17T07:48:59;10.18;;;9.45;;
40058;SDS011;25763;49.972;8.568;2022-10-17T07:51:24;10.55;;;9.88;;
40058;SDS011;25763;49.972;8.568;2022-10-17T07:53:50;10.93;;;9.95;;
40058;SDS011;25763;49.972;8.568;2022-10-17T07:56:16;10.57;;;9.88;;
40058;SDS011;25763;49.972;8.568;2022-10-17T07:58:41;9.70;;;9.00;;
40058;SDS011;25763;49.972;8.568;2022-10-17T08:01:07;9.30;;;8.60;;
40058;SDS011;25763;49.972;8.568;2022-10-17T08:03:38;9.90;;;9.30;;
40058;SDS011;25763;49.972;8.568;2022-10-17T08:06:04;10.25;;;9.48;;
40058;SDS011;25763;49.972;8.568;2022-10-17T08:08:29;9.68;;;8.73;;
40058;SDS011;25763;49.972;8.568;2022-10-17T08:10:55;8.35;;;7.75;;
40058;SDS011;25763;49.972;8.568;2022-10-17T08:13:25;8.73;;;8.13;;
40058;SDS011;25763;49.972;8.568;2022-10-17T08:15:50;9.32;;;8.63;;
40058;SDS011;25763;49.972;8.568;2022-10-17T08:18:16;9.07;;;8.23;;
40058;SDS011;25763;49.972;8.568;2022-10-17T08:20:42;9.27;;;8.57;;
40058;SDS011;25763;49.972;8.568;2022-10-17T08:23:08;7.80;;;7.30;;
40058;SDS011;25763;49.972;8.568;2022-10-17T08:25:33;8.98;;;8.23;;
40058;SDS011;25763;49.972;8.568;2022-10-17T08:28:02;8.35;;;7.75;;
40058;SDS011;25763;49.972;8.568;2022-10-17T08:30:27;9.43;;;8.82;;
40058;SDS011;25763;49.972;8.568;2022-10-17T08:32:54;8.50;;;7.80;;
40058;SDS011;25763;49.972;8.568;2022-10-17T08:35:20;7.82;;;7.32;;
40058;SDS011;25763;49.972;8.568;2022-10-17T08:37:46;8.93;;;8.32;;
40058;SDS011;25763;49.972;8.568;2022-10-17T08:40:16;8.40;;;7.80;;
40058;SDS011;25763;49.972;8.568;2022-10-17T08:45:36;9.70;;;9.10;;
40058;SDS011;25763;49.972;8.568;2022-10-17T08:48:15;11.35;;;10.65;;
40058;SDS011;25763;49.972;8.568;2022-10-17T08:50:47;11.88;;;11.18;;
40058;SDS011;25763;49.972;8.568;2022-10-17T08:56:18;10.30;;;9.65;;
40058;SDS011;25763;49.972;8.568;2022-10-17T08:58:46;17.05;;;16.08;;
40058;SDS011;25763;49.972;8.568;2022-10-17T09:01:28;15.48;;;14.57;;
40058;SDS011;25763;49.972;8.568;2022-10-17T09:06:45;22.00;;;20.80;;
40058;SDS011;25763;49.972;8.568;2022-10-17T09:09:33;22.55;;;21.35;;
40058;SDS011;25763;49.972;8.568;2022-10-17T09:12:35;18.15;;;17.15;;
40058;SDS011;25763;49.972;8.568;2022-10-17T09:23:01;20.15;;;19.05;;
40058;SDS011;25763;49.972;8.568;2022-10-17T09:25:31;20.42;;;19.23;;
40058;SDS011;25763;49.972;8.568;2022-10-17T09:28:18;22.48;;;21.23;;
40058;SDS011;25763;49.972;8.568;2022-10-17T09:30:53;22.40;;;21.10;;
40058;SDS011;25763;49.972;8.568;2022-10-17T09:33:23;23.70;;;22.40;;
40058;SDS011;25763;49.972;8.568;2022-10-17T09:36:15;21.15;;;20.02;;
40058;SDS011;25763;49.972;8.568;2022-10-17T09:38:51;27.27;;;25.83;;
40058;SDS011;25763;49.972;8.568;2022-10-17T09:41:41;25.45;;;24.10;;
40058;SDS011;25763;49.972;8.568;2022-10-17T09:44:12;26.40;;;24.98;;
40058;SDS011;25763;49.972;8.568;2022-10-17T09:46:39;23.25;;;21.92;;
40058;SDS011;25763;49.972;8.568;2022-10-17T09:49:16;33.00;;;31.30;;
40058;SDS011;25763;49.972;8.568;2022-10-17T09:51:43;34.90;;;33.10;;
40058;SDS011;25763;49.972;8.568;2022-10-17T09:56:55;28.45;;;26.88;;
40058;SDS011;25763;49.972;8.568;2022-10-17T09:59:30;26.63;;;25.13;;
40058;SDS011;25763;49.972;8.568;2022-10-17T10:02:06;29.30;;;27.73;;
40058;SDS011;25763;49.972;8.568;2022-10-17T10:04:50;26.08;;;24.70;;
40058;SDS011;25763;49.972;8.568;2022-10-17T10:07:21;31.33;;;29.73;;
40058;SDS011;25763;49.972;8.568;2022-10-17T10:09:47;31.25;;;29.45;;
40058;SDS011;25763;49.972;8.568;2022-10-17T10:12:19;34.47;;;32.35;;
40058;SDS011;25763;49.972;8.568;2022-10-17T10:14:46;29.63;;;28.02;;
40058;SDS011;25763;49.972;8.568;2022-10-17T10:17:24;31.27;;;29.58;;
40058;SDS011;25763;49.972;8.568;2022-10-17T10:23:17;26.98;;;25.48;;
40058;SDS011;25763;49.972;8.568;2022-10-17T10:28:22;29.35;;;27.75;;
40058;SDS011;25763;49.972;8.568;2022-10-17T10:30:54;34.30;;;32.50;;
40058;SDS011;25763;49.972;8.568;2022-10-17T10:33:22;30.90;;;29.30;;
40058;SDS011;25763;49.972;8.568;2022-10-17T10:35:52;32.30;;;30.58;;
40058;SDS011;25763;49.972;8.568;2022-10-17T10:38:25;32.85;;;31.10;;
40058;SDS011;25763;49.972;8.568;2022-10-17T10:40:53;36.17;;;34.33;;
40058;SDS011;25763;49.972;8.568;2022-10-17T10:43:25;37.65;;;35.70;;
40058;SDS011;25763;49.972;8.568;2022-10-17T10:45:54;44.05;;;41.80;;
40058;SDS011;25763;49.972;8.568;2022-10-17T10:50:56;40.30;;;38.27;;
40058;SDS011;25763;49.972;8.568;2022-10-17T10:53:34;38.25;;;35.50;;
40058;SDS011;25763;49.972;8.568;2022-10-17T11:01:26;50.42;;;47.90;;
40058;SDS011;25763;49.972;8.568;2022-10-17T11:04:10;50.97;;;48.33;;
40058;SDS011;25763;49.972;8.568;2022-10-17T11:06:43;40.60;;;38.17;;
40058;SDS011;25763;49.972;8.568;2022-10-17T11:09:21;44.83;;;42.53;;
40058;SDS011;25763;49.972;8.568;2022-10-17T11:11:53;54.00;;;51.10;;
40058;SDS011;25763;49.972;8.568;2022-10-17T11:17:09;29.00;;;27.50;;
40058;SDS011;25763;49.972;8.568;2022-10-17T11:19:49;37.33;;;35.42;;
40058;SDS011;25763;49.972;8.568;2022-10-17T11:27:36;26.77;;;25.38;;
40058;SDS011;25763;49.972;8.568;2022-10-17T11:30:02;33.72;;;31.90;;
40058;SDS011;25763;49.972;8.568;2022-10-17T11:32:45;30.98;;;29.35;;
40058;SDS011;25763;49.972;8.568;2022-10-17T11:35:20;29.80;;;28.08;;
40058;SDS011;25763;49.972;8.568;2022-10-17T11:37:54;35.58;;;33.75;;
40058;SDS011;25763;49.972;8.568;2022-10-17T11:40:40;30.42;;;28.83;;
40058;SDS011;25763;49.972;8.568;2022-10-17T11:48:42;44.97;;;42.33;;
40058;SDS011;25763;49.972;8.568;2022-10-17T11:51:14;36.47;;;34.60;;
40058;SDS011;25763;49.972;8.568;2022-10-17T11:53:44;55.08;;;52.30;;
40058;SDS011;25763;49.972;8.568;2022-10-17T11:56:13;54.05;;;51.33;;
40058;SDS011;25763;49.972;8.568;2022-10-17T12:04:25;57.35;;;54.50;;
40058;SDS011;25763;49.972;8.568;2022-10-17T12:07:10;50.83;;;48.25;;
40058;SDS011;25763;49.972;8.568;2022-10-17T12:12:30;59.97;;;56.97;;
40058;SDS011;25763;49.972;8.568;2022-10-17T12:22:49;69.75;;;66.25;;
40058;SDS011;25763;49.972;8.568;2022-10-17T12:25:23;76.63;;;72.75;;
40058;SDS011;25763;49.972;8.568;2022-10-17T12:27:50;80.40;;;76.43;;
40058;SDS011;25763;49.972;8.568;2022-10-17T12:30:26;78.32;;;74.43;;
40058;SDS011;25763;49.972;8.568;2022-10-17T12:33:05;82.88;;;78.82;;
40058;SDS011;25763;49.972;8.568;2022-10-17T12:35:51;79.20;;;75.30;;
40058;SDS011;25763;49.972;8.568;2022-10-17T12:38:42;86.57;;;82.32;;
40058;SDS011;25763;49.972;8.568;2022-10-17T12:41:08;90.68;;;86.22;;
40058;SDS011;25763;49.972;8.568;2022-10-17T12:43:50;86.70;;;82.43;;
40058;SDS011;25763;49.972;8.568;2022-10-17T12:49:19;81.55;;;77.55;;
40058;SDS011;25763;49.972;8.568;2022-10-17T12:52:04;79.70;;;75.78;;
40058;SDS011;25763;49.972;8.568;2022-10-17T12:54:41;76.80;;;73.00;;
40058;SDS011;25763;49.972;8.568;2022-10-17T12:57:29;77.50;;;73.65;;
40058;SDS011;25763;49.972;8.568;2022-10-17T13:02:43;78.95;;;75.03;;
40058;SDS011;25763;49.972;8.568;2022-10-17T13:05:14;72.75;;;69.07;;
40058;SDS011;25763;49.972;8.568;2022-10-17T13:07:47;62.55;;;59.42;;
40058;SDS011;25763;49.972;8.568;2022-10-17T13:10:21;90.38;;;85.95;;
40058;SDS011;25763;49.972;8.568;2022-10-17T13:12:49;100.32;;;95.40;;
40058;SDS011;25763;49.972;8.568;2022-10-17T13:15:16;128.95;;;122.68;;
40058;SDS011;25763;49.972;8.568;2022-10-17T13:17:43;128.13;;;121.82;;
40058;SDS011;25763;49.972;8.568;2022-10-17T13:20:17;120.30;;;114.38;;
40058;SDS011;25763;49.972;8.568;2022-10-17T13:22:49;129.53;;;123.13;;
40058;SDS011;25763;49.972;8.568;2022-10-17T13:25:17;140.82;;;133.90;;
40058;SDS011;25763;49.972;8.568;2022-10-17T13:27:44;146.02;;;138.88;;
40058;SDS011;25763;49.972;8.568;2022-10-17T13:30:26;146.20;;;139.05;;
40058;SDS011;25763;49.972;8.568;2022-10-17T13:32:52;148.05;;;140.75;;
40058;SDS011;25763;49.972;8.568;2022-10-17T13:35:23;139.48;;;132.63;;
40058;SDS011;25763;49.972;8.568;2022-10-17T13:37:52;136.13;;;129.45;;
40058;SDS011;25763;49.972;8.568;2022-10-17T13:40:21;149.65;;;142.30;;
40058;SDS011;25763;49.972;8.568;2022-10-17T13:42:55;139.95;;;133.10;;
40058;SDS011;25763;49.972;8.568;2022-10-17T13:45:31;141.32;;;134.38;;
40058;SDS011;25763;49.972;8.568;2022-10-17T13:48:05;134.10;;;127.55;;
40058;SDS011;25763;49.972;8.568;2022-10-17T13:50:41;131.75;;;125.30;;
40058;SDS011;25763;49.972;8.568;2022-10-17T13:53:23;125.55;;;119.38;;
40058;SDS011;25763;49.972;8.568;2022-10-17T13:56:01;128.63;;;122.00;;
40058;SDS011;25763;49.972;8.568;2022-10-17T13:58:46;137.45;;;130.73;;
40058;SDS011;25763;49.972;8.568;2022-10-17T14:01:13;113.78;;;108.20;;
40058;SDS011;25763;49.972;8.568;2022-10-17T14:03:40;124.88;;;118.68;;
40058;SDS011;25763;49.972;8.568;2022-10-17T14:06:10;122.38;;;116.35;;
40058;SDS011;25763;49.972;8.568;2022-10-17T14:08:38;125.10;;;119.00;;
40058;SDS011;25763;49.972;8.568;2022-10-17T14:11:13;117.25;;;111.53;;
40058;SDS011;25763;49.972;8.568;2022-10-17T14:13:46;113.05;;;107.55;;
40058;SDS011;25763;49.972;8.568;2022-10-17T14:16:13;112.70;;;107.18;;
40058;SDS011;25763;49.972;8.568;2022-10-17T14:18:39;104.47;;;99.35;;
40058;SDS011;25763;49.972;8.568;2022-10-17T14:21:04;110.40;;;104.97;;
40058;SDS011;25763;49.972;8.568;2022-10-17T14:23:36;102.45;;;97.47;;
40058;SDS011;25763;49.972;8.568;2022-10-17T14:26:14;114.38;;;108.80;;
40058;SDS011;25763;49.972;8.568;2022-10-17T14:28:48;125.65;;;119.20;;
40058;SDS011;25763;49.972;8.568;2022-10-17T14:31:25;124.65;;;118.57;;
40058;SDS011;25763;49.972;8.568;2022-10-17T14:33:54;108.20;;;102.90;;
40058;SDS011;25763;49.972;8.568;2022-10-17T14:36:28;112.40;;;106.90;;
40058;SDS011;25763;49.972;8.568;2022-10-17T14:38:59;97.63;;;92.88;;
40058;SDS011;25763;49.972;8.568;2022-10-17T14:41:30;94.93;;;90.28;;
40058;SDS011;25763;49.972;8.568;2022-10-17T14:44:03;107.00;;;101.80;;
40058;SDS011;25763;49.972;8.568;2022-10-17T14:46:31;97.93;;;93.10;;
40058;SDS011;25763;49.972;8.568;2022-10-17T14:49:06;98.45;;;93.63;;
40058;SDS011;25763;49.972;8.568;2022-10-17T14:51:40;101.40;;;96.43;;
40058;SDS011;25763;49.972;8.568;2022-10-17T14:54:35;80.18;;;76.22;;
40058;SDS011;25763;49.972;8.568;2022-10-17T14:57:07;74.82;;;71.15;;
40058;SDS011;25763;49.972;8.568;2022-10-17T14:59:38;60.78;;;57.67;;
40058;SDS011;25763;49.972;8.568;2022-10-17T15:02:04;58.28;;;55.30;;
40058;SDS011;25763;49.972;8.568;2022-10-17T15:04:29;62.22;;;58.92;;
40058;SDS011;25763;49.972;8.568;2022-10-17T15:06:54;45.92;;;43.63;;
40058;SDS011;25763;49.972;8.568;2022-10-17T15:09:20;51.83;;;48.95;;
40058;SDS011;25763;49.972;8.568;2022-10-17T15:11:47;51.97;;;49.30;;
40058;SDS011;25763;49.972;8.568;2022-10-17T15:14:12;37.92;;;36.03;;
40058;SDS011;25763;49.972;8.568;2022-10-17T15:16:37;36.58;;;34.67;;
40058;SDS011;25763;49.972;8.568;2022-10-17T15:19:03;36.80;;;34.90;;
40058;SDS011;25763;49.972;8.568;2022-10-17T15:21:29;29.05;;;27.48;;
40058;SDS011;25763;49.972;8.568;2022-10-17T15:23:54;38.35;;;36.35;;
40058;SDS011;25763;49.972;8.568;2022-10-17T15:26:25;34.20;;;32.40;;
40058;SDS011;25763;49.972;8.568;2022-10-17T15:28:53;35.70;;;33.85;;
40058;SDS011;25763;49.972;8.568;2022-10-17T15:31:20;31.05;;;29.42;;
40058;SDS011;25763;49.972;8.568;2022-10-17T15:33:46;30.02;;;28.38;;
40058;SDS011;25763;49.972;8.568;2022-10-17T15:36:17;28.90;;;27.30;;
40058;SDS011;25763;49.972;8.568;2022-10-17T15:38:54;29.42;;;27.92;;
40058;SDS011;25763;49.972;8.568;2022-10-17T15:41:21;23.50;;;22.23;;
40058;SDS011;25763;49.972;8.568;2022-10-17T15:43:48;21.23;;;19.85;;
40058;SDS011;25763;49.972;8.568;2022-10-17T15:46:16;27.88;;;26.33;;
40058;SDS011;25763;49.972;8.568;2022-10-17T15:48:43;22.33;;;21.13;;
40058;SDS011;25763;49.972;8.568;2022-10-17T15:51:09;24.65;;;23.35;;
40058;SDS011;25763;49.972;8.568;2022-10-17T15:53:35;17.85;;;16.85;;
40058;SDS011;25763;49.972;8.568;2022-10-17T15:56:00;17.23;;;16.23;;
40058;SDS011;25763;49.972;8.568;2022-10-17T15:58:27;17.80;;;16.80;;
40058;SDS011;25763;49.972;8.568;2022-10-17T16:00:59;17.70;;;16.70;;
40058;SDS011;25763;49.972;8.568;2022-10-17T16:03:24;19.30;;;18.20;;
40058;SDS011;25763;49.972;8.568;2022-10-17T16:05:49;19.20;;;18.00;;
40058;SDS011;25763;49.972;8.568;2022-10-17T16:08:15;18.23;;;17.15;;
40058;SDS011;25763;49.972;8.568;2022-10-17T16:10:40;20.60;;;19.45;;
40058;SDS011;25763;49.972;8.568;2022-10-17T16:13:08;27.88;;;26.38;;
40058;SDS011;25763;49.972;8.568;2022-10-17T16:15:40;28.65;;;27.10;;
40058;SDS011;25763;49.972;8.568;2022-10-17T16:18:06;27.85;;;26.35;;
40058;SDS011;25763;49.972;8.568;2022-10-17T16:20:31;32.72;;;31.02;;
40058;SDS011;25763;49.972;8.568;2022-10-17T16:22:56;33.78;;;31.85;;